Time,TemperatureF,DewpointF,PressureIn,WindDirection,WindDirectionDegrees,WindSpeedMPH,WindSpeedGustMPH,Humidity,HourlyPrecipIn,Conditions,Clouds,dailyrainin,SoftwareType,DateUTC
2013-08-02 00:06:00,62.5,61.3,29.59,SW,221,0.0,0.0,96,0.00,,,0.00,Wunderground v.1.15,2013-08-02 04:06:00,
2013-08-02 00:10:00,62.3,61.1,29.59,SW,221,0.0,0.0,96,0.00,,,0.00,Wunderground v.1.15,2013-08-02 04:10:00,
2013-08-02 00:15:00,62.2,61.0,29.59,SW,221,0.0,0.0,96,0.00,,,0.00,Wunderground v.1.15,2013-08-02 04:15:00,
2013-08-02 00:25:00,61.9,60.7,29.59,SW,221,0.0,0.0,96,0.00,,,0.00,Wunderground v.1.15,2013-08-02 04:25:00,
2013-08-02 00:30:00,61.7,60.5,29.59,SW,221,0.0,0.0,96,0.00,,,0.00,Wunderground v.1.15,2013-08-02 04:30:00,
2013-08-02 00:35:00,61.6,60.4,29.59,SW,221,0.0,0.0,96,0.00,,,0.00,Wunderground v.1.15,2013-08-02 04:35:00,
2013-08-02 00:45:00,61.3,60.2,29.59,SW,221,0.0,0.0,96,0.00,,,0.00,Wunderground v.1.15,2013-08-02 04:45:00,
2013-08-02 00:55:00,61.0,59.9,29.59,SW,221,0.0,0.0,96,0.00,,,0.00,Wunderground v.1.15,2013-08-02 04:55:00,
2013-08-02 01:00:00,60.9,59.8,29.59,SW,221,0.0,0.0,96,0.00,,,0.00,Wunderground v.1.15,2013-08-02 05:00:00,
2013-08-02 01:05:00,60.8,59.7,29.59,SW,221,0.0,0.0,96,0.00,,,0.00,Wunderground v.1.15,2013-08-02 05:05:00,
2013-08-02 01:15:00,60.6,59.7,29.59,SW,221,0.0,0.0,97,0.00,,,0.00,Wunderground v.1.15,2013-08-02 05:15:00,
2013-08-02 01:20:00,60.5,59.6,29.59,SW,221,0.0,0.0,97,0.00,,,0.00,Wunderground v.1.15,2013-08-02 05:20:00,
2013-08-02 01:25:00,60.3,59.2,29.59,SW,221,0.0,0.0,96,0.00,,,0.00,Wunderground v.1.15,2013-08-02 05:25:00,
2013-08-02 01:35:00,60.0,58.9,29.59,SW,221,0.0,0.0,96,0.00,,,0.00,Wunderground v.1.15,2013-08-02 05:35:00,
2013-08-02 01:40:00,59.9,58.8,29.59,SW,221,0.0,0.0,96,0.00,,,0.00,Wunderground v.1.15,2013-08-02 05:40:00,
2013-08-02 01:50:00,59.8,58.9,29.59,SW,221,0.0,0.0,97,0.00,,,0.00,Wunderground v.1.15,2013-08-02 05:50:00,
2013-08-02 02:00:00,60.0,59.1,29.59,SW,221,0.0,0.0,97,0.00,,,0.00,Wunderground v.1.15,2013-08-02 06:00:00,
2013-08-02 02:05:00,59.8,58.9,29.59,SW,221,0.0,0.0,97,0.00,,,0.00,Wunderground v.1.15,2013-08-02 06:05:00,
2013-08-02 02:15:00,59.5,58.6,29.59,SW,221,0.0,0.0,97,0.00,,,0.00,Wunderground v.1.15,2013-08-02 06:15:00,
2013-08-02 02:25:00,59.6,58.7,29.59,SW,221,0.0,0.0,97,0.00,,,0.00,Wunderground v.1.15,2013-08-02 06:25:00,
2013-08-02 02:30:00,59.8,59.2,29.59,SW,221,0.0,0.0,98,0.00,,,0.00,Wunderground v.1.15,2013-08-02 06:30:00,
2013-08-02 02:40:00,59.6,58.7,29.59,SW,221,0.0,0.0,97,0.00,,,0.00,Wunderground v.1.15,2013-08-02 06:40:00,
2013-08-02 02:45:00,59.6,58.7,29.59,SW,221,0.0,0.0,97,0.00,,,0.00,Wunderground v.1.15,2013-08-02 06:45:00,
2013-08-02 02:50:00,59.5,58.6,29.59,SW,221,0.0,0.0,97,0.00,,,0.00,Wunderground v.1.15,2013-08-02 06:50:00,
2013-08-02 03:00:00,59.4,58.5,29.59,SW,221,0.0,0.0,97,0.00,,,0.00,Wunderground v.1.15,2013-08-02 07:00:00,
2013-08-02 03:05:00,59.4,58.5,29.59,SW,221,0.0,0.0,97,0.00,,,0.00,Wunderground v.1.15,2013-08-02 07:05:00,
2013-08-02 03:15:00,59.1,58.2,29.59,SW,221,0.0,0.0,97,0.00,,,0.00,Wunderground v.1.15,2013-08-02 07:15:00,
2013-08-02 03:20:00,58.9,58.1,29.59,SW,221,0.0,0.0,97,0.00,,,0.00,Wunderground v.1.15,2013-08-02 07:20:00,
2013-08-02 03:25:00,58.7,57.9,29.59,SW,221,0.0,0.0,97,0.00,,,0.00,Wunderground v.1.15,2013-08-02 07:25:00,
2013-08-02 03:30:00,58.7,57.9,29.59,SW,221,0.0,0.0,97,0.00,,,0.00,Wunderground v.1.15,2013-08-02 07:30:00,
2013-08-02 03:40:00,58.6,57.8,29.59,SW,221,0.0,0.0,97,0.00,,,0.00,Wunderground v.1.15,2013-08-02 07:40:00,
2013-08-02 03:45:00,58.6,57.8,29.59,SW,221,0.0,0.0,97,0.00,,,0.00,Wunderground v.1.15,2013-08-02 07:45:00,
2013-08-02 03:55:00,58.4,57.6,29.59,SW,221,0.0,0.0,97,0.00,,,0.00,Wunderground v.1.15,2013-08-02 07:55:00,
2013-08-02 04:00:00,58.3,57.7,29.59,SW,221,0.0,0.0,98,0.00,,,0.00,Wunderground v.1.15,2013-08-02 08:00:00,
2013-08-02 04:05:00,58.2,57.4,29.59,SW,221,0.0,0.0,97,0.00,,,0.00,Wunderground v.1.15,2013-08-02 08:05:00,
2013-08-02 04:15:00,58.2,57.4,29.59,SW,221,0.0,0.0,97,0.00,,,0.00,Wunderground v.1.15,2013-08-02 08:15:00,
2013-08-02 04:20:00,58.1,57.5,29.59,SW,221,0.0,0.0,98,0.00,,,0.00,Wunderground v.1.15,2013-08-02 08:20:00,
2013-08-02 04:25:00,58.0,57.4,29.58,SW,221,0.0,0.0,98,0.00,,,0.00,Wunderground v.1.15,2013-08-02 08:25:00,
2013-08-02 04:35:00,57.7,57.1,29.59,SW,221,0.0,0.0,98,0.00,,,0.00,Wunderground v.1.15,2013-08-02 08:35:00,
2013-08-02 04:40:00,57.6,56.8,29.59,SW,221,0.0,0.0,97,0.00,,,0.00,Wunderground v.1.15,2013-08-02 08:40:00,
2013-08-02 04:50:00,57.4,56.6,29.58,SW,221,0.0,0.0,97,0.00,,,0.00,Wunderground v.1.15,2013-08-02 08:50:00,
2013-08-02 05:00:00,57.4,56.8,29.59,SW,221,0.0,0.0,98,0.00,,,0.00,Wunderground v.1.15,2013-08-02 09:00:00,
2013-08-02 05:06:00,57.7,57.1,29.59,SW,221,0.0,0.0,98,0.00,,,0.00,Wunderground v.1.15,2013-08-02 09:06:00,
2013-08-02 05:15:00,57.9,57.3,29.59,SW,221,0.0,0.0,98,0.00,,,0.00,Wunderground v.1.15,2013-08-02 09:15:00,
2013-08-02 05:25:00,57.9,57.3,29.59,SW,221,0.0,0.0,98,0.00,,,0.01,Wunderground v.1.15,2013-08-02 09:25:00,
2013-08-02 05:30:00,57.7,57.1,29.59,SW,221,0.0,0.0,98,0.00,,,0.01,Wunderground v.1.15,2013-08-02 09:30:00,
2013-08-02 05:40:00,57.5,56.9,29.59,SW,221,0.0,0.0,98,0.00,,,0.01,Wunderground v.1.15,2013-08-02 09:40:00,
2013-08-02 05:50:00,57.6,57.0,29.59,SW,221,0.0,1.0,98,0.00,,,0.01,Wunderground v.1.15,2013-08-02 09:50:00,
2013-08-02 06:00:00,57.7,57.1,29.60,SW,221,0.0,0.0,98,0.00,,,0.01,Wunderground v.1.15,2013-08-02 10:00:00,
2013-08-02 06:05:00,57.6,57.0,29.60,SW,221,0.0,0.0,98,0.00,,,0.01,Wunderground v.1.15,2013-08-02 10:05:00,
2013-08-02 06:15:00,57.7,57.1,29.60,SW,221,0.0,0.0,98,0.00,,,0.01,Wunderground v.1.15,2013-08-02 10:15:00,
2013-08-02 06:25:00,57.7,57.1,29.60,SW,221,0.0,0.0,98,0.00,,,0.01,Wunderground v.1.15,2013-08-02 10:25:00,
2013-08-02 06:30:00,57.7,57.1,29.60,SW,221,0.0,0.0,98,0.00,,,0.01,Wunderground v.1.15,2013-08-02 10:30:00,
2013-08-02 06:40:00,58.1,57.5,29.60,SW,221,0.0,2.0,98,0.00,,,0.01,Wunderground v.1.15,2013-08-02 10:40:00,
2013-08-02 06:45:00,58.6,58.3,29.60,SW,221,1.0,2.0,99,0.00,,,0.01,Wunderground v.1.15,2013-08-02 10:45:00,
2013-08-02 06:50:00,58.9,58.3,29.61,SW,221,1.0,1.0,98,0.00,,,0.01,Wunderground v.1.15,2013-08-02 10:50:00,
2013-08-02 07:00:00,59.7,59.1,29.61,SW,221,0.0,0.0,98,0.00,,,0.01,Wunderground v.1.15,2013-08-02 11:00:00,
2013-08-02 07:05:00,60.2,59.9,29.61,SW,221,1.0,3.0,99,0.00,,,0.01,Wunderground v.1.15,2013-08-02 11:05:00,
2013-08-02 07:15:00,60.7,60.4,29.61,SW,221,1.0,2.0,99,0.00,,,0.01,Wunderground v.1.15,2013-08-02 11:15:00,
2013-08-02 07:20:00,60.7,60.4,29.62,SW,221,0.0,0.0,99,0.00,,,0.01,Wunderground v.1.15,2013-08-02 11:20:00,
2013-08-02 07:30:00,60.9,60.3,29.62,SW,221,0.0,0.0,98,0.00,,,0.01,Wunderground v.1.15,2013-08-02 11:30:00,
2013-08-02 07:40:00,61.5,61.2,29.62,SW,221,0.0,0.0,99,0.00,,,0.01,Wunderground v.1.15,2013-08-02 11:40:00,
2013-08-02 07:50:00,61.5,60.9,29.62,SW,221,0.0,1.0,98,0.00,,,0.01,Wunderground v.1.15,2013-08-02 11:50:00,
2013-08-02 08:00:00,62.0,61.4,29.62,SW,221,0.0,1.0,98,0.00,,,0.01,Wunderground v.1.15,2013-08-02 12:00:00,
2013-08-02 08:05:00,62.8,62.2,29.62,SW,221,1.0,2.0,98,0.00,,,0.01,Wunderground v.1.15,2013-08-02 12:05:00,
2013-08-02 08:15:00,64.1,63.8,29.62,SW,221,3.0,3.0,99,0.00,,,0.01,Wunderground v.1.15,2013-08-02 12:15:00,
2013-08-02 08:25:00,65.3,64.7,29.62,SW,221,3.0,3.0,98,0.00,,,0.01,Wunderground v.1.15,2013-08-02 12:25:00,
2013-08-02 08:35:00,66.5,65.3,29.62,SW,221,2.0,3.0,96,0.00,,,0.01,Wunderground v.1.15,2013-08-02 12:35:00,
2013-08-02 08:45:00,68.0,65.9,29.62,SSW,212,3.0,4.0,93,0.00,,,0.01,Wunderground v.1.15,2013-08-02 12:45:00,
2013-08-02 08:55:00,68.6,65.2,29.62,SW,226,4.0,4.0,89,0.00,,,0.01,Wunderground v.1.15,2013-08-02 12:55:00,
2013-08-02 09:06:00,69.7,66.3,29.61,SSW,210,3.0,4.0,89,0.00,,,0.01,Wunderground v.1.15,2013-08-02 13:06:00,
2013-08-02 09:15:00,70.5,66.1,29.61,SSW,213,4.0,6.0,86,0.00,,,0.01,Wunderground v.1.15,2013-08-02 13:15:00,
2013-08-02 09:25:00,71.0,65.9,29.61,SSW,211,6.0,6.0,84,0.00,,,0.01,Wunderground v.1.15,2013-08-02 13:25:00,
2013-08-02 09:35:00,71.4,65.6,29.60,South,187,4.0,5.0,82,0.00,,,0.01,Wunderground v.1.15,2013-08-02 13:35:00,
2013-08-02 09:45:00,72.1,65.2,29.60,SSW,209,4.0,4.0,79,0.00,,,0.01,Wunderground v.1.15,2013-08-02 13:45:00,
2013-08-02 09:50:00,72.4,65.5,29.60,SW,228,5.0,5.0,79,0.00,,,0.01,Wunderground v.1.15,2013-08-02 13:50:00,
2013-08-02 10:00:00,73.1,65.1,29.60,SSW,198,4.0,4.0,76,0.00,,,0.01,Wunderground v.1.15,2013-08-02 14:00:00,
2013-08-02 10:06:00,73.1,66.2,29.60,WSW,242,5.0,6.0,79,0.00,,,0.01,Wunderground v.1.15,2013-08-02 14:06:00,
2013-08-02 10:15:00,72.0,65.1,29.60,SSW,207,4.0,5.0,79,0.00,,,0.01,Wunderground v.1.15,2013-08-02 14:15:00,
2013-08-02 10:25:00,71.7,66.3,29.60,SW,219,3.0,4.0,83,0.00,,,0.01,Wunderground v.1.15,2013-08-02 14:25:00,
2013-08-02 10:35:00,72.1,66.3,29.60,NW,319,2.0,2.0,82,0.00,,,0.01,Wunderground v.1.15,2013-08-02 14:35:00,
2013-08-02 10:45:00,72.5,67.4,29.60,SSW,203,2.0,4.0,84,0.00,,,0.01,Wunderground v.1.15,2013-08-02 14:45:00,
2013-08-02 10:55:00,73.4,67.9,29.59,SW,217,4.0,4.0,83,0.00,,,0.01,Wunderground v.1.15,2013-08-02 14:55:00,
2013-08-02 11:00:00,73.6,66.7,29.58,SSW,192,3.0,7.0,79,0.00,,,0.01,Wunderground v.1.15,2013-08-02 15:00:00,
2013-08-02 11:06:00,73.1,65.5,29.58,SW,214,3.0,7.0,77,0.00,,,0.01,Wunderground v.1.15,2013-08-02 15:06:00,
2013-08-02 11:15:00,72.5,66.0,29.59,NW,304,1.0,3.0,80,0.00,,,0.01,Wunderground v.1.15,2013-08-02 15:15:00,
2013-08-02 11:25:00,72.0,66.6,29.59,South,175,1.0,4.0,83,0.00,,,0.01,Wunderground v.1.15,2013-08-02 15:25:00,
2013-08-02 11:30:00,71.1,62.8,29.59,SSW,198,4.0,9.0,75,0.00,,,0.01,Wunderground v.1.15,2013-08-02 15:30:00,
2013-08-02 11:40:00,67.9,60.8,29.60,SSW,202,7.0,7.0,78,0.00,,,0.01,Wunderground v.1.15,2013-08-02 15:40:00,
2013-08-02 11:50:00,67.2,60.8,29.60,SW,234,5.0,5.0,80,0.00,,,0.01,Wunderground v.1.15,2013-08-02 15:50:00,
2013-08-02 12:00:00,68.1,62.4,29.60,SSW,197,1.0,1.0,82,0.00,,,0.01,Wunderground v.1.15,2013-08-02 16:00:00,
2013-08-02 12:06:00,68.9,62.8,29.60,SSW,197,1.0,3.0,81,0.00,,,0.01,Wunderground v.1.15,2013-08-02 16:06:00,
2013-08-02 12:15:00,70.8,65.0,29.59,SW,232,2.0,2.0,82,0.00,,,0.01,Wunderground v.1.15,2013-08-02 16:15:00,
2013-08-02 12:20:00,71.4,64.2,29.59,South,188,2.0,2.0,78,0.00,,,0.01,Wunderground v.1.15,2013-08-02 16:20:00,
2013-08-02 12:25:00,72.0,65.5,29.59,SSW,207,2.0,5.0,80,0.00,,,0.01,Wunderground v.1.15,2013-08-02 16:25:00,
2013-08-02 12:35:00,73.3,66.0,29.59,SSW,205,2.0,3.0,78,0.00,,,0.01,Wunderground v.1.15,2013-08-02 16:35:00,
2013-08-02 12:45:00,74.0,66.0,29.59,SSW,200,1.0,4.0,76,0.00,,,0.01,Wunderground v.1.15,2013-08-02 16:45:00,
2013-08-02 12:55:00,73.9,65.9,29.59,SSW,200,2.0,2.0,76,0.00,,,0.01,Wunderground v.1.15,2013-08-02 16:55:00,
2013-08-02 13:06:00,74.2,66.9,29.59,West,281,1.0,4.0,78,0.00,,,0.01,Wunderground v.1.15,2013-08-02 17:06:00,
2013-08-02 13:15:00,74.8,66.7,29.59,NNE,14,2.0,2.0,76,0.00,,,0.01,Wunderground v.1.15,2013-08-02 17:15:00,
2013-08-02 13:25:00,76.5,66.0,29.59,WNW,300,2.0,4.0,70,0.00,,,0.01,Wunderground v.1.15,2013-08-02 17:25:00,
2013-08-02 13:35:00,77.5,66.1,29.59,West,273,2.0,5.0,68,0.00,,,0.01,Wunderground v.1.15,2013-08-02 17:35:00,
2013-08-02 13:45:00,78.1,64.9,29.58,WSW,239,2.0,4.0,64,0.00,,,0.01,Wunderground v.1.15,2013-08-02 17:45:00,
2013-08-02 13:55:00,78.3,65.1,29.58,West,262,3.0,5.0,64,0.00,,,0.01,Wunderground v.1.15,2013-08-02 17:55:00,
2013-08-02 14:00:00,78.2,63.6,29.58,WNW,288,3.0,3.0,61,0.00,,,0.01,Wunderground v.1.15,2013-08-02 18:00:00,
2013-08-02 14:05:00,78.2,64.6,29.58,West,277,3.0,5.0,63,0.00,,,0.01,Wunderground v.1.15,2013-08-02 18:05:00,
2013-08-02 14:15:00,78.5,64.4,29.58,West,270,2.0,4.0,62,0.00,,,0.01,Wunderground v.1.15,2013-08-02 18:15:00,
2013-08-02 14:25:00,78.3,63.7,29.58,South,188,4.0,4.0,61,0.00,,,0.01,Wunderground v.1.15,2013-08-02 18:25:00,
2013-08-02 14:35:00,78.9,64.3,29.58,West,276,3.0,3.0,61,0.00,,,0.01,Wunderground v.1.15,2013-08-02 18:35:00,
2013-08-02 14:45:00,79.1,64.0,29.58,SSE,162,2.0,3.0,60,0.00,,,0.01,Wunderground v.1.15,2013-08-02 18:45:00,
2013-08-02 14:50:00,79.4,64.8,29.58,SW,232,2.0,2.0,61,0.00,,,0.01,Wunderground v.1.15,2013-08-02 18:50:00,
2013-08-02 15:00:00,79.5,64.9,29.57,WSW,238,2.0,2.0,61,0.00,,,0.01,Wunderground v.1.15,2013-08-02 19:00:00,
2013-08-02 15:06:00,78.7,65.9,29.57,NNW,340,2.0,4.0,65,0.00,,,0.01,Wunderground v.1.15,2013-08-02 19:06:00,
2013-08-02 15:15:00,79.4,65.7,29.57,WSW,255,2.0,3.0,63,0.00,,,0.01,Wunderground v.1.15,2013-08-02 19:15:00,
2013-08-02 15:20:00,79.3,65.1,29.57,WSW,258,2.0,2.0,62,0.00,,,0.01,Wunderground v.1.15,2013-08-02 19:20:00,
2013-08-02 15:30:00,78.9,62.9,29.56,SW,236,3.0,3.0,58,0.00,,,0.01,Wunderground v.1.15,2013-08-02 19:30:00,
2013-08-02 15:40:00,79.6,63.0,29.56,West,270,3.0,3.0,57,0.00,,,0.01,Wunderground v.1.15,2013-08-02 19:40:00,
2013-08-02 15:45:00,80.0,62.4,29.56,WSW,244,2.0,3.0,55,0.00,,,0.01,Wunderground v.1.15,2013-08-02 19:45:00,
2013-08-02 15:55:00,80.3,63.7,29.55,West,279,2.0,5.0,57,0.00,,,0.01,Wunderground v.1.15,2013-08-02 19:55:00,
2013-08-02 16:05:00,78.5,64.9,29.56,SW,214,4.0,9.0,63,0.00,,,0.01,Wunderground v.1.15,2013-08-02 20:05:00,
2013-08-02 16:15:00,75.5,64.2,29.56,SW,236,5.0,8.0,68,0.00,,,0.01,Wunderground v.1.15,2013-08-02 20:15:00,
2013-08-02 16:20:00,74.8,64.4,29.56,SW,223,5.0,5.0,70,0.00,,,0.01,Wunderground v.1.15,2013-08-02 20:20:00,
2013-08-02 16:30:00,73.7,63.7,29.56,SSW,199,5.0,5.0,71,0.00,,,0.01,Wunderground v.1.15,2013-08-02 20:30:00,
2013-08-02 16:40:00,71.8,64.2,29.57,West,275,4.0,4.0,77,0.00,,,0.02,Wunderground v.1.15,2013-08-02 20:40:00,
2013-08-02 16:45:00,70.8,64.3,29.56,SSW,203,1.0,4.0,80,0.13,,,0.03,Wunderground v.1.15,2013-08-02 20:45:00,
2013-08-02 16:50:00,70.1,64.7,29.58,SSW,203,1.0,1.0,83,0.08,,,0.04,Wunderground v.1.15,2013-08-02 20:50:00,
2013-08-02 17:00:00,68.1,64.1,29.57,ENE,77,2.0,2.0,87,0.15,,,0.10,Wunderground v.1.15,2013-08-02 21:00:00,
2013-08-02 17:05:00,67.5,63.8,29.57,NNW,333,1.0,2.0,88,0.11,,,0.11,Wunderground v.1.15,2013-08-02 21:05:00,
2013-08-02 17:15:00,68.2,65.5,29.57,NNW,334,0.0,1.0,91,0.04,,,0.11,Wunderground v.1.15,2013-08-02 21:15:00,
2013-08-02 17:25:00,69.3,65.3,29.56,NNW,334,0.0,1.0,87,0.00,,,0.11,Wunderground v.1.15,2013-08-02 21:25:00,
2013-08-02 17:30:00,69.6,65.6,29.56,SW,223,1.0,1.0,87,0.00,,,0.11,Wunderground v.1.15,2013-08-02 21:30:00,
2013-08-02 17:40:00,69.8,66.1,29.56,SSW,200,2.0,2.0,88,0.00,,,0.11,Wunderground v.1.15,2013-08-02 21:40:00,
2013-08-02 17:50:00,71.2,66.5,29.56,SSW,194,2.0,2.0,85,0.00,,,0.11,Wunderground v.1.15,2013-08-02 21:50:00,
2013-08-02 18:00:00,72.7,64.7,29.56,SW,236,4.0,4.0,76,0.00,,,0.11,Wunderground v.1.15,2013-08-02 22:00:00,
2013-08-02 18:06:00,72.9,62.9,29.56,WSW,243,5.0,6.0,71,0.00,,,0.11,Wunderground v.1.15,2013-08-02 22:06:00,
2013-08-02 18:15:00,73.0,63.0,29.56,SSW,193,5.0,6.0,71,0.00,,,0.11,Wunderground v.1.15,2013-08-02 22:15:00,
2013-08-02 18:20:00,73.1,63.1,29.56,WSW,241,4.0,4.0,71,0.00,,,0.11,Wunderground v.1.15,2013-08-02 22:20:00,
2013-08-02 18:25:00,73.3,62.5,29.56,SSW,209,4.0,4.0,69,0.00,,,0.11,Wunderground v.1.15,2013-08-02 22:25:00,
2013-08-02 18:35:00,73.3,62.5,29.56,WSW,242,2.0,3.0,69,0.00,,,0.11,Wunderground v.1.15,2013-08-02 22:35:00,
2013-08-02 18:45:00,72.9,62.1,29.56,SSW,204,4.0,6.0,69,0.00,,,0.11,Wunderground v.1.15,2013-08-02 22:45:00,
2013-08-02 18:55:00,73.0,62.6,29.56,WSW,242,4.0,5.0,70,0.00,,,0.11,Wunderground v.1.15,2013-08-02 22:55:00,
2013-08-02 19:00:00,73.0,62.6,29.56,WSW,246,4.0,4.0,70,0.00,,,0.11,Wunderground v.1.15,2013-08-02 23:00:00,
2013-08-02 19:05:00,73.0,62.6,29.56,West,259,3.0,4.0,70,0.00,,,0.11,Wunderground v.1.15,2013-08-02 23:05:00,
2013-08-02 19:15:00,72.4,62.1,29.56,SW,217,4.0,7.0,70,0.00,,,0.11,Wunderground v.1.15,2013-08-02 23:15:00,
2013-08-02 19:20:00,72.4,62.5,29.55,SSW,213,4.0,4.0,71,0.00,,,0.11,Wunderground v.1.15,2013-08-02 23:20:00,
2013-08-02 19:30:00,72.2,62.3,29.56,SSW,196,3.0,6.0,71,0.00,,,0.11,Wunderground v.1.15,2013-08-02 23:30:00,
2013-08-02 19:40:00,71.3,62.2,29.57,SW,218,3.0,3.0,73,0.00,,,0.11,Wunderground v.1.15,2013-08-02 23:40:00,
2013-08-02 19:50:00,70.8,61.7,29.56,SSW,203,3.0,4.0,73,0.00,,,0.11,Wunderground v.1.15,2013-08-02 23:50:00,
2013-08-02 20:00:00,70.7,61.2,29.56,SSW,206,4.0,4.0,72,0.00,,,0.11,Wunderground v.1.15,2013-08-03 00:00:00,
2013-08-02 20:06:00,70.5,61.0,29.57,SW,232,3.0,4.0,72,0.00,,,0.11,Wunderground v.1.15,2013-08-03 00:06:00,
2013-08-02 20:15:00,70.1,61.4,29.56,SW,223,2.0,5.0,74,0.00,,,0.11,Wunderground v.1.15,2013-08-03 00:15:00,
2013-08-02 20:25:00,69.5,61.2,29.56,SW,217,2.0,2.0,75,0.00,,,0.11,Wunderground v.1.15,2013-08-03 00:25:00,
2013-08-02 20:30:00,69.2,61.3,29.56,SW,217,1.0,1.0,76,0.00,,,0.11,Wunderground v.1.15,2013-08-03 00:30:00,
2013-08-02 20:35:00,68.8,60.9,29.56,SW,217,1.0,1.0,76,0.00,,,0.11,Wunderground v.1.15,2013-08-03 00:35:00,
2013-08-02 20:45:00,68.3,61.2,29.56,SW,217,1.0,1.0,78,0.00,,,0.11,Wunderground v.1.15,2013-08-03 00:45:00,
2013-08-02 20:50:00,67.9,61.1,29.56,SW,217,1.0,1.0,79,0.00,,,0.11,Wunderground v.1.15,2013-08-03 00:50:00,
2013-08-02 21:00:00,67.7,61.0,29.57,SW,215,3.0,3.0,79,0.00,,,0.11,Wunderground v.1.15,2013-08-03 01:00:00,
2013-08-02 21:06:00,67.8,61.0,29.57,SW,217,3.0,4.0,79,0.00,,,0.11,Wunderground v.1.15,2013-08-03 01:06:00,
2013-08-02 21:15:00,68.3,61.5,29.58,SW,235,6.0,10.0,79,0.00,,,0.11,Wunderground v.1.15,2013-08-03 01:15:00,
2013-08-02 21:20:00,67.8,62.1,29.58,SW,229,5.0,6.0,82,0.00,,,0.11,Wunderground v.1.15,2013-08-03 01:20:00,
2013-08-02 21:30:00,66.1,62.1,29.58,SSW,210,6.0,6.0,87,0.99,,,0.15,Wunderground v.1.15,2013-08-03 01:30:00,
2013-08-02 21:35:00,65.2,61.9,29.58,South,187,8.0,14.0,89,2.97,,,0.23,Wunderground v.1.15,2013-08-03 01:35:00,
2013-08-02 21:45:00,64.8,62.4,29.57,SSW,198,5.0,9.0,92,2.25,,,0.44,Wunderground v.1.15,2013-08-03 01:45:00,
2013-08-02 21:55:00,64.4,62.3,29.57,SSW,209,2.0,3.0,93,0.29,,,0.51,Wunderground v.1.15,2013-08-03 01:55:00,
2013-08-02 22:06:00,64.2,62.4,29.58,SSW,210,1.0,1.0,94,0.97,,,0.59,Wunderground v.1.15,2013-08-03 02:06:00,
2013-08-02 22:15:00,64.0,62.5,29.57,WSW,240,0.0,1.0,95,0.77,,,0.69,Wunderground v.1.15,2013-08-03 02:15:00,
2013-08-02 22:25:00,64.0,62.5,29.57,WSW,240,0.0,1.0,95,0.16,,,0.73,Wunderground v.1.15,2013-08-03 02:25:00,
2013-08-02 22:35:00,63.9,62.7,29.57,WNW,299,1.0,2.0,96,0.11,,,0.75,Wunderground v.1.15,2013-08-03 02:35:00,
2013-08-02 22:45:00,64.1,62.9,29.57,West,259,2.0,3.0,96,0.04,,,0.76,Wunderground v.1.15,2013-08-03 02:45:00,
2013-08-02 22:55:00,64.1,62.9,29.56,WNW,284,1.0,2.0,96,0.08,,,0.77,Wunderground v.1.15,2013-08-03 02:55:00,
2013-08-02 23:05:00,64.2,63.0,29.57,WNW,284,1.0,1.0,96,0.05,,,0.78,Wunderground v.1.15,2013-08-03 03:05:00,
2013-08-02 23:15:00,64.1,62.9,29.56,WNW,284,1.0,1.0,96,1.21,,,0.82,Wunderground v.1.15,2013-08-03 03:15:00,
2013-08-02 23:20:00,64.0,62.8,29.56,South,178,2.0,5.0,96,0.35,,,0.88,Wunderground v.1.15,2013-08-03 03:20:00,
2013-08-02 23:30:00,63.9,63.0,29.56,WSW,250,5.0,5.0,97,0.29,,,0.92,Wunderground v.1.15,2013-08-03 03:30:00,
2013-08-02 23:40:00,63.8,62.9,29.55,SW,225,4.0,4.0,97,0.08,,,0.93,Wunderground v.1.15,2013-08-03 03:40:00,
2013-08-02 23:50:00,63.7,62.8,29.56,SW,226,1.0,1.0,97,0.04,,,0.93,Wunderground v.1.15,2013-08-03 03:50:00,
2013-08-02 23:55:00,63.7,62.8,29.56,SW,226,0.0,1.0,97,0.00,,,0.93,Wunderground v.1.15,2013-08-03 03:55:00,